Time;durP1;ratioP1;P1;durP2;ratioP2;P2;SDS_P1;SDS_P2;PMS_P1;PMS_P2;Temp;Humidity;BMP_temperature;BMP_pressure;BME280_temperature;BME280_humidity;BME280_pressure;Samples;Min_cycle;Max_cycle;Signal;HPM_P1;HPM_P2
2022/12/04 00:01:06;;;;;;;;;32.00;27.33;;;;;4.52;68.23;100882.94;5002963;28;45356;-71
2022/12/04 00:03:33;;;;;;;;;29.00;26.33;;;;;4.54;67.00;100881.91;5016893;28;48722;-72
2022/12/04 00:06:13;;;;;;;;;45.33;34.67;;;;;4.02;67.12;100766.09;5017083;28;45310;-71
2022/12/04 00:08:40;;;;;;;;;37.67;30.33;;;;;4.58;66.99;100864.94;5018114;28;45490;-69
2022/12/04 00:11:07;;;;;;;;;30.00;25.67;;;;;4.43;67.30;100839.66;5010730;28;45627;-71
2022/12/04 00:13:33;;;;;;;;;34.67;30.67;;;;;4.67;67.87;100876.66;4998041;28;45757;-70
2022/12/04 00:15:58;;;;;;;;;32.33;31.00;;;;;4.61;67.11;100863.06;4997050;28;45405;-72
2022/12/04 00:18:24;;;;;;;;;31.33;30.33;;;;;4.31;67.52;100824.66;4998341;28;45365;-71
2022/12/04 00:20:50;;;;;;;;;41.00;38.00;;;;;4.66;67.37;100884.66;4998720;28;45224;-71
2022/12/04 00:23:15;;;;;;;;;37.67;30.33;;;;;4.37;67.16;100812.88;4986385;28;47557;-72
2022/12/04 00:25:41;;;;;;;;;38.67;32.33;;;;;4.68;66.94;100885.41;5018002;28;45251;-71
2022/12/04 00:28:07;;;;;;;;;37.00;32.33;;;;;4.39;67.27;100864.47;5000140;28;45491;-71
2022/12/04 00:30:32;;;;;;;;;34.67;32.33;;;;;4.39;67.36;100843.41;5017764;28;45482;-73
2022/12/04 00:32:57;;;;;;;;;35.67;31.00;;;;;4.55;67.89;100859.88;5000899;28;48214;-70
2022/12/04 00:35:24;;;;;;;;;32.67;29.67;;;;;4.79;67.38;100878.44;5018491;28;45447;-71
2022/12/04 00:37:50;;;;;;;;;29.67;29.33;;;;;4.42;66.58;100811.66;5000274;28;45552;-71
2022/12/04 00:40:15;;;;;;;;;33.00;27.33;;;;;4.08;66.90;100736.75;5016267;28;45426;-70
2022/12/04 00:42:41;;;;;;;;;40.67;36.33;;;;;4.27;66.65;100781.09;5001603;28;46916;-71
2022/12/04 00:45:06;;;;;;;;;37.67;31.33;;;;;4.77;66.66;100866.34;4979839;28;45302;-70
2022/12/04 00:47:31;;;;;;;;;43.00;35.33;;;;;4.49;66.48;100827.88;4980223;28;45243;-70
2022/12/04 00:49:57;;;;;;;;;34.00;32.00;;;;;4.17;66.38;100787.91;4997739;28;45377;-71
2022/12/04 00:52:22;;;;;;;;;40.67;37.33;;;;;4.26;66.84;100800.47;4997817;28;45452;-70
2022/12/04 00:54:48;;;;;;;;;42.00;35.67;;;;;4.16;66.87;100784.41;4979997;28;45452;-69
2022/12/04 00:57:13;;;;;;;;;36.00;28.00;;;;;4.81;66.67;100881.84;4998079;28;45479;-70
2022/12/04 00:59:39;;;;;;;;;32.33;28.00;;;;;4.43;66.60;100810.72;4980480;28;45469;-71
2022/12/04 01:02:04;;;;;;;;;37.33;33.00;;;;;3.84;66.37;100697.16;4996911;28;48448;-70
2022/12/04 01:04:29;;;;;;;;;41.67;36.00;;;;;4.49;66.51;100855.03;5017535;28;45460;-70
2022/12/04 01:06:54;;;;;;;;;35.00;31.33;;;;;3.88;67.41;100750.38;5017294;28;45325;-69
2022/12/04 01:09:20;;;;;;;;;30.33;24.33;;;;;4.55;67.29;100859.03;5017335;28;45175;-70
2022/12/04 01:11:46;;;;;;;;;36.67;29.00;;;;;3.97;67.70;100779.53;4983799;28;48222;-70
2022/12/04 01:14:11;;;;;;;;;34.67;33.33;;;;;4.17;67.82;100799.25;4976242;28;46019;-71
2022/12/04 01:16:38;;;;;;;;;24.67;22.33;;;;;4.53;67.77;100858.31;4977855;28;45475;-71
2022/12/04 01:19:06;;;;;;;;;30.67;27.33;;;;;4.42;67.50;100843.25;4978009;28;45499;-71
2022/12/04 01:21:32;;;;;;;;;34.33;31.00;;;;;4.61;67.24;100858.66;4977625;28;46825;-71
2022/12/04 01:23:58;;;;;;;;;38.67;31.33;;;;;4.61;67.76;100860.44;4992539;28;45843;-70
2022/12/04 01:26:24;;;;;;;;;32.33;27.33;;;;;4.52;67.17;100849.56;4976480;28;45361;-70
2022/12/04 01:28:49;;;;;;;;;38.67;34.67;;;;;4.62;68.14;100870.03;4983661;28;45195;-69
2022/12/04 01:31:18;;;;;;;;;38.67;33.67;;;;;4.58;67.34;100859.66;4983782;28;46334;-69
2022/12/04 01:33:44;;;;;;;;;31.67;27.33;;;;;4.63;67.20;100846.22;4998971;28;45412;-70
2022/12/04 01:36:12;;;;;;;;;38.00;28.00;;;;;3.55;67.46;100664.88;4983860;28;45287;-70
2022/12/04 01:38:39;;;;;;;;;33.00;29.33;;;;;4.57;66.83;100826.41;4985621;28;45507;-69
2022/12/04 01:41:05;;;;;;;;;33.00;28.67;;;;;4.75;67.30;100855.91;5003302;28;45665;-70
2022/12/04 01:43:33;;;;;;;;;36.67;30.67;;;;;4.68;66.76;100848.53;5003266;28;45534;-71
2022/12/04 01:46:00;;;;;;;;;36.00;31.33;;;;;4.03;67.31;100745.91;5003723;28;45245;-69
2022/12/04 01:48:38;;;;;;;;;36.33;31.33;;;;;4.61;68.31;100852.53;5003165;28;45621;-70
2022/12/04 01:51:19;;;;;;;;;42.67;35.33;;;;;4.71;67.19;100867.59;4983519;28;46496;-70
2022/12/04 01:53:59;;;;;;;;;35.33;32.00;;;;;4.73;67.17;100860.44;4983828;28;45344;-71
2022/12/04 01:57:03;;;;;;;;;33.67;31.67;;;;;4.54;67.20;100838.94;4983805;28;45315;-70
2022/12/04 01:59:34;;;;;;;;;44.00;36.67;;;;;4.31;67.62;100808.88;4983801;28;45616;-70
2022/12/04 02:02:07;;;;;;;;;38.00;35.33;;;;;4.52;68.83;100857.47;4983726;28;45535;-71
2022/12/04 02:04:33;;;;;;;;;40.67;32.00;;;;;4.15;68.10;100816.94;4998482;28;45315;-70
2022/12/04 02:06:58;;;;;;;;;46.33;37.33;;;;;4.15;68.30;100818.72;4983737;28;45423;-69
2022/12/04 02:09:24;;;;;;;;;38.67;33.67;;;;;3.76;68.80;100765.16;4982951;28;45586;-69
2022/12/04 02:12:05;;;;;;;;;36.67;28.67;;;;;4.39;69.39;100868.91;4983394;28;45665;-71
2022/12/04 02:14:42;;;;;;;;;34.00;32.00;;;;;4.40;68.32;100846.91;4998604;28;45479;-71
2022/12/04 02:17:22;;;;;;;;;33.00;31.67;;;;;4.57;68.29;100863.25;5003104;28;45395;-71
2022/12/04 02:20:11;;;;;;;;;35.33;31.67;;;;;4.41;67.83;100820.50;5001776;28;45514;-70
2022/12/04 02:23:00;;;;;;;;;49.00;39.00;;;;;4.44;67.32;100829.97;5002862;28;45270;-70
2022/12/04 02:25:54;;;;;;;;;36.67;28.33;;;;;4.68;67.86;100859.06;4989748;28;45368;-69
2022/12/04 02:28:47;;;;;;;;;40.67;36.67;;;;;4.73;67.65;100862.22;5002747;28;45396;-71
2022/12/04 02:31:19;;;;;;;;;40.00;33.67;;;;;4.40;67.45;100821.41;5000897;28;45373;-69
2022/12/04 02:34:12;;;;;;;;;39.33;32.00;;;;;4.63;67.94;100850.66;5003467;28;45832;-70
2022/12/04 02:36:51;;;;;;;;;46.33;35.33;;;;;4.53;67.77;100834.59;5002778;28;45345;-69
2022/12/04 02:39:39;;;;;;;;;38.00;35.00;;;;;4.26;67.39;100805.72;4982550;28;45509;-70
2022/12/04 02:42:18;;;;;;;;;47.33;37.33;;;;;4.36;67.74;100838.38;5000012;28;45326;-70
2022/12/04 02:44:48;;;;;;;;;35.67;27.33;;;;;4.21;68.69;100829.72;4999159;28;45822;-69
2022/12/04 02:47:21;;;;;;;;;40.67;33.33;;;;;4.47;68.50;100851.66;4999611;28;45412;-70
2022/12/04 02:49:54;;;;;;;;;40.33;30.33;;;;;3.74;68.47;100729.41;4999095;28;45327;-69
2022/12/04 02:52:26;;;;;;;;;43.33;34.67;;;;;4.44;68.10;100845.78;4999427;28;45243;-69
2022/12/04 02:54:57;;;;;;;;;37.00;32.67;;;;;4.53;68.33;100845.97;4999095;28;46219;-70
2022/12/04 02:57:27;;;;;;;;;43.33;35.33;;;;;4.23;67.62;100795.41;4981593;28;45685;-69
2022/12/04 02:59:55;;;;;;;;;39.33;37.00;;;;;4.66;67.83;100860.97;4999284;28;45474;-70
2022/12/04 03:02:34;;;;;;;;;35.00;34.00;;;;;4.30;67.25;100790.56;4998184;28;45480;-70
2022/12/04 03:05:05;;;;;;;;;34.67;23.00;;;;;4.74;67.87;100863.91;4982297;28;47950;-71
2022/12/04 03:07:35;;;;;;;;;37.67;36.00;;;;;4.65;67.26;100843.47;4999596;28;45330;-71
2022/12/04 03:10:15;;;;;;;;;38.67;32.33;;;;;4.73;66.97;100847.28;4999208;28;46589;-69
2022/12/04 03:12:47;;;;;;;;;42.67;35.67;;;;;4.75;67.48;100855.06;4981624;28;45428;-68
2022/12/04 03:15:43;;;;;;;;;38.00;34.33;;;;;4.68;67.54;100836.22;4999141;28;45813;-70
2022/12/04 03:18:22;;;;;;;;;42.33;36.67;;;;;4.62;67.53;100835.78;4998808;28;45480;-71
2022/12/04 03:20:53;;;;;;;;;45.67;38.33;;;;;4.67;68.02;100852.13;5017505;28;45460;-70
2022/12/04 03:23:25;;;;;;;;;44.33;35.33;;;;;4.55;67.53;100837.97;5018975;28;45321;-72
2022/12/04 03:26:01;;;;;;;;;38.67;29.67;;;;;4.47;67.82;100806.06;5018517;28;45582;-70
2022/12/04 03:28:51;;;;;;;;;45.67;38.67;;;;;4.66;67.74;100835.47;5017241;28;45276;-71
2022/12/04 03:31:29;;;;;;;;;44.00;35.33;;;;;4.68;68.25;100838.00;5018595;28;45329;-70
2022/12/04 03:33:59;;;;;;;;;47.00;37.67;;;;;4.58;68.36;100833.34;5017365;28;45644;-70
2022/12/04 03:36:31;;;;;;;;;38.33;31.67;;;;;4.51;67.65;100815.44;5000721;28;46530;-69
2022/12/04 03:39:02;;;;;;;;;38.00;32.00;;;;;4.64;67.48;100832.09;5011439;28;45527;-70
2022/12/04 03:41:36;;;;;;;;;36.33;30.33;;;;;4.34;67.94;100770.97;4981275;28;46465;-70
2022/12/04 03:44:18;;;;;;;;;42.67;35.33;;;;;4.55;67.61;100815.13;4998744;28;45277;-70
2022/12/04 03:46:52;;;;;;;;;43.67;38.00;;;;;4.06;68.25;100750.94;4998480;28;45375;-69
2022/12/04 03:49:36;;;;;;;;;36.67;28.33;;;;;4.52;68.93;100819.75;4997466;28;45589;-71
2022/12/04 03:52:09;;;;;;;;;37.33;30.33;;;;;4.51;67.99;100807.53;4998476;28;45573;-71
2022/12/04 03:54:46;;;;;;;;;40.33;36.67;;;;;4.58;68.63;100809.66;4998808;28;45490;-69
2022/12/04 03:57:23;;;;;;;;;45.33;37.67;;;;;4.48;68.09;100797.22;4997613;28;46804;-70
2022/12/04 03:59:59;;;;;;;;;42.67;35.00;;;;;4.50;68.39;100798.81;4998279;28;45402;-70
2022/12/04 04:02:30;;;;;;;;;23.33;21.00;;;;;4.03;67.88;100690.66;4980389;28;45595;-70
2022/12/04 04:04:59;;;;;;;;;45.67;37.00;;;;;4.40;67.89;100749.50;4980860;28;45418;-69
2022/12/04 04:07:36;;;;;;;;;38.33;30.67;;;;;4.08;68.87;100717.50;4998103;28;45861;-70
2022/12/04 04:10:11;;;;;;;;;43.00;37.67;;;;;4.32;68.77;100773.72;4998042;28;45199;-71
2022/12/04 04:12:42;;;;;;;;;39.00;31.33;;;;;4.24;68.94;100741.81;4998276;28;45370;-69
2022/12/04 04:26:24;;;;;;;;;43.33;36.00;;;;;4.33;68.33;100711.41;5018021;28;45358;-69
2022/12/04 04:28:49;;;;;;;;;40.00;24.33;;;;;4.56;68.71;100745.72;5016360;28;46853;-70
2022/12/04 04:31:27;;;;;;;;;46.33;35.67;;;;;4.55;68.08;100728.25;5017399;28;45376;-69
2022/12/04 04:34:00;;;;;;;;;38.33;34.33;;;;;3.01;67.64;100467.09;5017607;28;45409;-70
2022/12/04 04:36:36;;;;;;;;;32.67;31.33;;;;;4.45;67.77;100711.41;5016385;28;45517;-70
2022/12/04 04:39:18;;;;;;;;;49.67;38.00;;;;;4.61;67.66;100744.59;5017279;28;46493;-69
2022/12/04 04:41:53;;;;;;;;;43.67;35.00;;;;;4.42;67.61;100721.31;5017316;28;45197;-70
2022/12/04 04:44:33;;;;;;;;;44.33;36.33;;;;;4.60;67.96;100775.31;5017301;28;45555;-71
2022/12/04 04:47:05;;;;;;;;;34.67;32.67;;;;;4.52;68.03;100759.22;5000364;28;45603;-71
2022/12/04 04:49:34;;;;;;;;;46.33;39.33;;;;;4.57;68.11;100752.66;4997457;28;46107;-70
2022/12/04 04:52:01;;;;;;;;;47.00;40.33;;;;;4.56;67.65;100761.50;4979802;28;45283;-70
2022/12/04 04:54:29;;;;;;;;;44.00;36.00;;;;;4.61;67.44;100768.28;4997535;28;45318;-69
2022/12/04 04:56:55;;;;;;;;;43.33;35.33;;;;;4.42;67.86;100714.25;4997093;28;45463;-70
2022/12/04 04:59:20;;;;;;;;;43.00;36.00;;;;;4.42;67.78;100737.94;4997340;28;46451;-71
2022/12/04 05:01:46;;;;;;;;;45.33;36.33;;;;;4.64;68.52;100763.66;4979007;28;46177;-69
2022/12/04 05:04:12;;;;;;;;;34.67;32.33;;;;;4.61;68.27;100758.59;5002602;28;45501;-69
2022/12/04 05:06:37;;;;;;;;;47.67;35.00;;;;;4.26;67.58;100679.41;5017190;28;45238;-68
2022/12/04 05:09:03;;;;;;;;;41.67;35.67;;;;;4.53;68.34;100751.19;5017031;28;45432;-69
2022/12/04 05:11:28;;;;;;;;;37.00;35.33;;;;;4.71;67.55;100772.78;5016779;28;45404;-70
2022/12/04 05:13:54;;;;;;;;;39.00;36.00;;;;;4.64;67.35;100755.75;4997801;28;45758;-70
2022/12/04 05:16:19;;;;;;;;;34.33;31.33;;;;;4.81;67.44;100767.75;5017313;28;45469;-69
2022/12/04 05:21:29;;;;;;;;;43.67;35.00;;;;;4.62;67.97;100767.34;5017202;28;45464;-70
2022/12/04 05:23:54;;;;;;;;;44.00;38.00;;;;;4.67;67.82;100760.78;5011330;28;45548;-70
2022/12/04 05:26:19;;;;;;;;;44.00;35.33;;;;;4.66;68.27;100766.16;4997463;28;45286;-71
2022/12/04 05:28:45;;;;;;;;;40.33;33.00;;;;;4.41;67.34;100719.63;4996958;28;45516;-70
2022/12/04 05:31:10;;;;;;;;;41.67;36.00;;;;;4.51;67.91;100726.78;4978743;28;59189;-71
2022/12/04 05:33:35;;;;;;;;;38.33;36.00;;;;;4.61;68.44;100763.00;4997827;28;45376;-70
2022/12/04 05:36:04;;;;;;;;;37.33;28.00;;;;;4.55;67.59;100761.63;5017390;28;45449;-70
2022/12/04 05:38:29;;;;;;;;;44.33;36.00;;;;;4.53;67.42;100787.22;5017000;28;46807;-70
2022/12/04 05:40:59;;;;;;;;;45.67;35.67;;;;;2.80;67.80;100511.34;5016658;28;45549;-69
2022/12/04 05:43:25;;;;;;;;;38.00;28.67;;;;;4.70;67.88;100812.41;5017107;28;45152;-69
2022/12/04 05:45:50;;;;;;;;;44.00;37.67;;;;;4.75;67.40;100797.13;5016167;28;45588;-71
2022/12/04 05:48:15;;;;;;;;;41.33;33.33;;;;;4.82;67.44;100803.69;5016820;28;46624;-70
2022/12/04 05:50:41;;;;;;;;;39.33;34.33;;;;;4.28;67.64;100724.88;4998729;28;46056;-70
2022/12/04 05:53:06;;;;;;;;;43.00;37.00;;;;;4.83;67.42;100816.75;5016801;28;45297;-70
2022/12/04 05:55:32;;;;;;;;;46.33;38.67;;;;;4.76;67.20;100788.28;4998028;28;45525;-70
2022/12/04 05:57:57;;;;;;;;;34.00;26.33;;;;;4.71;67.92;100779.84;4996557;28;45356;-69
2022/12/04 06:00:22;;;;;;;;;46.00;34.33;;;;;4.91;67.02;100821.47;4997135;28;45313;-70
2022/12/04 06:02:48;;;;;;;;;43.33;36.33;;;;;3.95;66.85;100655.16;4996921;28;45446;-69
2022/12/04 06:05:13;;;;;;;;;43.00;37.00;;;;;4.98;66.31;100835.03;4996495;28;45321;-70
2022/12/04 06:07:38;;;;;;;;;35.33;33.00;;;;;4.97;67.31;100812.28;4996250;28;45538;-69
2022/12/04 06:10:05;;;;;;;;;42.67;37.67;;;;;4.12;66.65;100693.50;4996656;28;45334;-70
2022/12/04 06:12:30;;;;;;;;;42.67;37.33;;;;;4.88;67.47;100808.50;4997535;28;45453;-71
2022/12/04 06:14:55;;;;;;;;;33.00;29.00;;;;;4.93;66.83;100805.56;5008549;28;56301;-70
2022/12/04 06:17:21;;;;;;;;;44.67;38.33;;;;;4.94;67.04;100802.81;5019820;28;46168;-69
2022/12/04 06:19:46;;;;;;;;;43.33;35.33;;;;;4.87;67.57;100809.47;5019794;28;45430;-70
2022/12/04 06:22:11;;;;;;;;;46.00;38.33;;;;;4.36;67.43;100730.44;5020054;28;45308;-70
2022/12/04 06:24:37;;;;;;;;;49.33;38.67;;;;;4.81;67.21;100802.00;5000903;28;45834;-68
2022/12/04 06:27:03;;;;;;;;;42.33;35.33;;;;;4.68;66.41;100772.16;5018084;28;46478;-69
2022/12/04 06:29:29;;;;;;;;;50.33;37.33;;;;;4.45;67.53;100743.00;5001412;28;45652;-69
2022/12/04 06:31:54;;;;;;;;;43.67;34.33;;;;;4.52;67.78;100767.94;5019648;28;45249;-70
2022/12/04 06:34:19;;;;;;;;;46.67;37.33;;;;;4.78;68.03;100823.25;5000736;28;45596;-70
2022/12/04 06:36:44;;;;;;;;;47.67;38.00;;;;;4.74;67.39;100804.19;5008327;28;45630;-70
2022/12/04 06:39:10;;;;;;;;;50.00;39.33;;;;;4.88;67.08;100811.16;4999468;28;45318;-69
2022/12/04 06:41:35;;;;;;;;;42.67;35.67;;;;;4.88;67.82;100816.41;4999649;28;45181;-70
2022/12/04 06:44:01;;;;;;;;;44.33;36.00;;;;;4.72;67.27;100786.81;4981686;28;45694;-70
2022/12/04 06:46:29;;;;;;;;;49.33;39.33;;;;;5.03;66.88;100815.38;4998894;28;56261;-70
2022/12/04 06:48:56;;;;;;;;;42.33;37.00;;;;;3.94;66.63;100650.84;4999427;28;45401;-71
2022/12/04 06:51:30;;;;;;;;;44.67;37.00;;;;;4.77;67.20;100771.53;4981564;28;45433;-70
2022/12/04 06:53:56;;;;;;;;;52.33;36.00;;;;;5.20;66.74;100829.97;5013018;28;45482;-71
2022/12/04 06:56:24;;;;;;;;;43.33;37.33;;;;;4.87;66.42;100783.13;5008425;28;45483;-70
2022/12/04 06:58:52;;;;;;;;;50.00;38.67;;;;;4.88;67.14;100797.97;4981794;28;45562;-70
2022/12/04 07:01:21;;;;;;;;;46.00;40.33;;;;;5.05;67.12;100816.09;4999473;28;45345;-70
2022/12/04 07:03:47;;;;;;;;;42.00;37.67;;;;;4.70;66.65;100750.03;4999579;28;46209;-70
2022/12/04 07:06:19;;;;;;;;;39.00;34.00;;;;;5.10;67.12;100840.31;4998889;28;46347;-71
2022/12/04 07:08:48;;;;;;;;;45.00;36.33;;;;;5.02;66.72;100803.13;4998895;28;45460;-70
2022/12/04 07:11:14;;;;;;;;;42.67;37.33;;;;;5.17;67.26;100820.50;4981301;28;45590;-69
2022/12/04 07:13:39;;;;;;;;;40.67;34.00;;;;;5.14;66.74;100822.50;5011376;28;45403;-70
2022/12/04 07:16:07;;;;;;;;;49.33;40.00;;;;;5.08;66.87;100818.50;5018584;28;46687;-69
2022/12/04 07:18:34;;;;;;;;;43.67;34.00;;;;;3.67;66.39;100560.72;5018768;28;45504;-72
2022/12/04 07:21:03;;;;;;;;;46.67;38.00;;;;;5.08;66.76;100805.34;5018727;28;45202;-69
2022/12/04 07:23:28;;;;;;;;;39.33;34.67;;;;;5.20;67.04;100816.78;5007611;28;45461;-70
2022/12/04 07:25:53;;;;;;;;;42.33;35.33;;;;;4.36;67.20;100690.13;4998208;28;46444;-69
2022/12/04 07:28:18;;;;;;;;;48.67;36.67;;;;;5.25;66.93;100827.03;4998147;28;63175;-68
2022/12/04 07:30:44;;;;;;;;;49.33;38.67;;;;;5.37;66.12;100827.00;4998938;28;45369;-70
2022/12/04 07:33:09;;;;;;;;;38.67;34.33;;;;;5.20;66.27;100793.06;4988677;28;48854;-70
2022/12/04 07:35:34;;;;;;;;;30.00;25.00;;;;;5.44;66.54;100836.16;5018507;28;46112;-71
2022/12/04 07:38:00;;;;;;;;;50.00;36.33;;;;;5.31;66.43;100839.78;5018503;28;45203;-70
2022/12/04 07:40:25;;;;;;;;;51.00;39.00;;;;;3.97;66.70;100600.66;5000656;28;45287;-71
2022/12/04 07:42:50;;;;;;;;;52.33;39.33;;;;;5.50;66.23;100835.72;4994799;28;45389;-71
2022/12/04 07:45:16;;;;;;;;;45.33;37.33;;;;;5.50;66.47;100822.53;4998461;28;46433;-72
2022/12/04 07:47:41;;;;;;;;;44.67;37.67;;;;;5.43;65.74;100809.91;4998460;28;45405;-69
2022/12/04 07:50:07;;;;;;;;;36.00;34.00;;;;;5.59;66.06;100836.00;4998518;28;45243;-71
2022/12/04 07:52:36;;;;;;;;;49.33;39.00;;;;;5.23;65.96;100781.50;4998148;28;45347;-69
2022/12/04 07:55:04;;;;;;;;;45.33;37.00;;;;;5.51;66.06;100818.13;4998493;28;45823;-70
2022/12/04 07:57:29;;;;;;;;;40.67;33.00;;;;;5.00;66.34;100744.41;4998448;28;45531;-71
2022/12/04 07:59:54;;;;;;;;;52.00;39.00;;;;;5.34;66.99;100800.00;4997715;28;59949;-70
2022/12/04 08:02:20;;;;;;;;;47.33;37.67;;;;;5.29;66.34;100812.69;4998977;28;45500;-71
2022/12/04 08:04:46;;;;;;;;;52.33;41.67;;;;;5.28;67.01;100818.91;5010053;28;46250;-70
2022/12/04 08:07:11;;;;;;;;;50.67;40.00;;;;;5.24;66.82;100822.72;4997820;28;45538;-70
2022/12/04 08:09:37;;;;;;;;;47.67;38.33;;;;;4.69;66.67;100719.41;4997706;28;45412;-71
2022/12/04 08:12:02;;;;;;;;;45.67;37.67;;;;;5.20;67.03;100800.97;4987686;28;45497;-71
2022/12/04 08:14:28;;;;;;;;;57.00;43.00;;;;;4.23;66.66;100640.16;4999185;28;47419;-71
2022/12/04 08:16:53;;;;;;;;;48.33;41.00;;;;;3.70;66.59;100597.31;4999109;28;47697;-70
2022/12/04 08:19:18;;;;;;;;;47.00;38.67;;;;;5.03;67.18;100820.63;4999663;28;45509;-70
2022/12/04 08:21:44;;;;;;;;;53.50;43.50;;;;;4.05;67.56;100670.34;5019347;28;45374;-71
2022/12/04 08:24:11;;;;;;;;;42.33;37.67;;;;;4.49;67.64;100712.88;5001621;28;48294;-69
2022/12/04 08:26:36;;;;;;;;;50.00;37.67;;;;;3.39;67.44;100514.41;5006712;28;45653;-69
2022/12/04 08:29:03;;;;;;;;;53.67;42.67;;;;;5.13;66.73;100805.84;4997839;28;45608;-69
2022/12/04 08:31:30;;;;;;;;;57.67;44.00;;;;;5.15;67.41;100822.38;4998186;28;45344;-71
2022/12/04 08:33:57;;;;;;;;;52.67;42.33;;;;;4.89;67.33;100778.59;5012817;28;45981;-71
2022/12/04 08:36:24;;;;;;;;;42.67;36.33;;;;;4.83;67.05;100774.59;4983161;28;45604;-73
2022/12/04 08:38:49;;;;;;;;;52.33;41.67;;;;;5.12;66.91;100792.78;5004890;28;45182;-70
2022/12/04 08:41:18;;;;;;;;;56.00;43.67;;;;;5.34;67.03;100815.81;4998178;28;45470;-71
2022/12/04 08:43:44;;;;;;;;;57.00;43.75;;;;;5.41;66.46;100830.28;4996442;28;47317;-71
2022/12/04 08:46:12;;;;;;;;;49.00;39.00;;;;;5.44;66.63;100806.31;4998176;28;46905;-70
2022/12/04 08:48:38;;;;;;;;;54.67;40.67;;;;;4.59;66.51;100665.66;4998023;28;45556;-71
2022/12/04 08:51:06;;;;;;;;;51.33;39.33;;;;;5.52;65.95;100845.31;4997718;28;45224;-70
2022/12/04 08:53:31;;;;;;;;;51.00;38.33;;;;;5.62;66.14;100835.81;4979808;28;47797;-69
2022/12/04 08:56:00;;;;;;;;;56.67;42.00;;;;;5.69;65.92;100861.63;4997672;28;45472;-72
2022/12/04 08:58:25;;;;;;;;;48.33;39.67;;;;;5.57;64.99;100830.00;5000325;28;45456;-71
2022/12/04 09:00:50;;;;;;;;;55.00;40.67;;;;;5.42;66.08;100829.31;5016803;28;45393;-77
2022/12/04 09:03:18;;;;;;;;;57.67;42.67;;;;;5.47;65.67;100854.41;4999022;28;47050;-70
2022/12/04 09:05:47;;;;;;;;;53.00;42.25;;;;;5.36;66.19;100838.50;5015525;28;45548;-70
2022/12/04 09:08:14;;;;;;;;;56.67;43.33;;;;;5.15;67.19;100817.13;5004026;28;45417;-70
2022/12/04 09:10:40;;;;;;;;;58.25;42.50;;;;;5.17;67.36;100836.31;4996053;28;45656;-70
2022/12/04 09:13:06;;;;;;;;;59.25;46.75;;;;;4.89;67.37;100800.50;4997322;28;46470;-70
2022/12/04 09:15:31;;;;;;;;;48.33;36.33;;;;;4.90;68.22;100775.00;4997459;28;45505;-71
2022/12/04 09:17:57;;;;;;;;;43.00;37.33;;;;;5.39;66.99;100837.44;4997243;28;45401;-70
2022/12/04 09:20:23;;;;;;;;;52.00;40.33;;;;;4.98;66.85;100741.03;4997490;28;45231;-71
2022/12/04 09:22:49;;;;;;;;;55.00;41.33;;;;;5.41;66.03;100828.47;4998869;28;45616;-72
2022/12/04 09:25:15;;;;;;;;;54.33;43.33;;;;;5.53;66.30;100837.28;5012541;28;45262;-70
2022/12/04 09:27:40;;;;;;;;;46.00;39.33;;;;;5.53;65.72;100831.19;5011236;28;46024;-70
2022/12/04 09:30:08;;;;;;;;;52.67;42.67;;;;;5.06;66.93;100780.88;4998464;28;45351;-70
2022/12/04 09:32:33;;;;;;;;;43.67;36.00;;;;;4.38;66.34;100680.34;4980045;28;46902;-70
2022/12/04 09:34:59;;;;;;;;;54.33;41.67;;;;;5.09;67.63;100816.72;5008487;28;45552;-71
2022/12/04 09:37:24;;;;;;;;;52.00;42.00;;;;;5.25;67.40;100824.41;5015777;28;45301;-67
2022/12/04 09:39:50;;;;;;;;;50.67;35.33;;;;;5.23;67.16;100813.13;5015644;28;45384;-72
2022/12/04 09:42:30;;;;;;;;;47.33;36.33;;;;;5.25;66.70;100817.34;5005843;28;46382;-72
2022/12/04 09:45:02;;;;;;;;;57.33;40.33;;;;;4.60;67.00;100722.66;4991128;28;45378;-71
2022/12/04 09:47:35;;;;;;;;;46.67;39.00;;;;;5.25;67.16;100833.16;4989222;28;45247;-70
2022/12/04 09:50:12;;;;;;;;;43.33;37.33;;;;;5.19;66.52;100837.03;5000167;28;45314;-70
2022/12/04 09:52:49;;;;;;;;;53.67;41.33;;;;;5.31;66.75;100856.44;5017877;28;45832;-70
2022/12/04 09:55:29;;;;;;;;;46.67;36.67;;;;;4.39;67.09;100668.84;5001923;28;45214;-72
2022/12/04 09:57:58;;;;;;;;;53.67;41.67;;;;;5.26;66.71;100799.72;5011036;28;45451;-69
2022/12/04 10:00:26;;;;;;;;;51.67;36.67;;;;;4.30;66.13;100628.25;5002722;28;45320;-72
2022/12/04 10:03:04;;;;;;;;;50.00;41.33;;;;;4.77;66.70;100703.88;4999384;28;47762;-71
2022/12/04 10:05:47;;;;;;;;;55.00;40.33;;;;;5.40;66.77;100813.59;5020632;28;45448;-72
2022/12/04 10:08:24;;;;;;;;;56.00;44.00;;;;;5.59;66.79;100841.28;5020494;28;45490;-75
2022/12/04 10:11:02;;;;;;;;;52.00;39.33;;;;;5.57;66.39;100811.53;5021159;28;45229;-72
2022/12/04 10:13:46;;;;;;;;;53.00;41.33;;;;;5.54;65.87;100823.16;5018235;28;47549;-71
2022/12/04 10:16:22;;;;;;;;;52.33;42.00;;;;;5.51;66.72;100807.56;5018315;28;45238;-71
2022/12/04 10:19:05;;;;;;;;;56.33;44.33;;;;;5.66;65.94;100827.56;5012591;28;45270;-71
2022/12/04 10:21:46;;;;;;;;;43.67;38.33;;;;;5.61;65.85;100813.03;4999167;28;45509;-76
2022/12/04 10:24:33;;;;;;;;;50.00;41.00;;;;;5.58;66.00;100798.25;4999726;28;46733;-71
2022/12/04 10:27:03;;;;;;;;;59.75;47.00;;;;;3.13;66.05;100413.72;5000119;28;45409;-72
2022/12/04 10:29:35;;;;;;;;;54.25;44.25;;;;;5.55;65.94;100824.84;5000083;28;45608;-71
2022/12/04 10:32:24;;;;;;;;;52.00;41.00;;;;;5.38;66.83;100775.09;4982432;28;45280;-71
2022/12/04 10:34:53;;;;;;;;;57.33;42.00;;;;;5.68;66.29;100809.84;4983075;28;48710;-70
2022/12/04 10:37:21;;;;;;;;;54.50;42.00;;;;;5.87;65.73;100816.41;5019156;28;45275;-70
2022/12/04 10:40:07;;;;;;;;;52.00;41.00;;;;;5.99;65.46;100819.00;5009697;28;45460;-72
2022/12/04 10:42:46;;;;;;;;;48.67;40.67;;;;;5.71;65.03;100759.47;5000839;28;45357;-71
2022/12/04 10:45:12;;;;;;;;;59.67;41.33;;;;;5.55;65.16;100724.63;4981739;28;45499;-71
2022/12/04 10:47:43;;;;;;;;;51.33;41.33;;;;;6.22;64.75;100814.69;4999033;28;45286;-72
2022/12/04 10:50:20;;;;;;;;;53.33;40.00;;;;;5.87;64.21;100747.81;5014455;28;45294;-72
2022/12/04 10:52:46;;;;;;;;;56.33;42.67;;;;;6.39;64.72;100826.59;5018824;28;45428;-71
2022/12/04 10:55:12;;;;;;;;;42.67;37.00;;;;;6.13;64.21;100773.13;5008667;28;45699;-72
2022/12/04 10:57:44;;;;;;;;;49.67;36.67;;;;;6.40;64.63;100826.50;5008930;28;45290;-72
2022/12/04 11:00:26;;;;;;;;;51.33;41.33;;;;;6.02;64.25;100757.28;5018300;28;45601;-73
2022/12/04 11:02:54;;;;;;;;;55.67;42.00;;;;;6.13;65.10;100812.72;4999743;28;45552;-79
2022/12/04 11:05:31;;;;;;;;;51.33;41.00;;;;;6.17;64.87;100803.59;4996746;28;45619;-71
2022/12/04 11:07:59;;;;;;;;;51.33;42.00;;;;;5.09;65.12;100633.09;5011399;28;45499;-72
2022/12/04 11:10:38;;;;;;;;;51.67;40.00;;;;;6.13;65.08;100810.06;5020616;28;45418;-69
2022/12/04 11:13:11;;;;;;;;;53.00;42.67;;;;;5.74;64.96;100745.22;4994591;28;45615;-72
2022/12/04 11:15:51;;;;;;;;;61.33;44.67;;;;;5.96;65.16;100786.72;5014911;28;47902;-73
2022/12/04 11:18:24;;;;;;;;;54.33;39.67;;;;;6.19;65.44;100814.91;4999050;28;45625;-70
2022/12/04 11:20:54;;;;;;;;;51.33;42.00;;;;;5.85;65.31;100757.63;5018831;28;45456;-71
2022/12/04 11:23:21;;;;;;;;;46.67;38.33;;;;;5.83;65.85;100786.78;5002789;28;45538;-73
2022/12/04 11:25:49;;;;;;;;;44.00;35.00;;;;;5.93;65.65;100781.69;5013122;28;46561;-73
2022/12/04 11:28:20;;;;;;;;;55.67;43.33;;;;;6.02;65.65;100808.25;5015477;28;45367;-73
2022/12/04 11:30:53;;;;;;;;;55.00;42.33;;;;;6.03;66.29;100809.94;5001056;28;45515;-73
2022/12/04 11:33:27;;;;;;;;;50.33;38.67;;;;;5.60;66.34;100727.78;5001271;28;45477;-72
2022/12/04 11:35:55;;;;;;;;;48.67;39.00;;;;;5.66;66.06;100740.53;4999482;28;46138;-72
2022/12/04 11:38:25;;;;;;;;;61.00;47.33;;;;;5.57;66.24;100703.41;5014329;28;45485;-72
2022/12/04 11:40:54;;;;;;;;;44.33;34.67;;;;;6.01;66.12;100777.53;5000852;28;45226;-71
2022/12/04 11:43:22;;;;;;;;;49.67;41.33;;;;;6.08;65.87;100783.19;5000718;28;45554;-72